Time;durP1;ratioP1;P1;durP2;ratioP2;P2;SDS_P1;SDS_P2;PMS_P1;PMS_P2;Temp;Humidity;BMP_temperature;BMP_pressure;BME280_temperature;BME280_humidity;BME280_pressure;Samples;Min_cycle;Max_cycle;Signal;HPM_P1;HPM_P2
2023/03/30 00:01:26;;;;;;;5.18;4.68;;;;;;;;;;5052055;28;20098;-57
2023/03/30 00:03:53;;;;;;;4.90;4.50;;;;;;;;;;5053164;28;20040;-57
2023/03/30 00:06:21;;;;;;;4.03;3.72;;;;;;;;;;5054061;28;20065;-57
2023/03/30 00:08:48;;;;;;;4.78;4.38;;;;;;;;;;5044073;28;20120;-56
2023/03/30 00:11:15;;;;;;;3.90;3.60;;;;;;;;;;5049103;28;20048;-59
2023/03/30 00:13:43;;;;;;;4.80;4.40;;;;;;;;;;5051739;28;20460;-57
2023/03/30 00:16:10;;;;;;;4.55;4.15;;;;;;;;;;5039747;28;20088;-57
2023/03/30 00:18:38;;;;;;;4.03;3.72;;;;;;;;;;5050218;28;20118;-58
2023/03/30 00:21:04;;;;;;;3.75;3.45;;;;;;;;;;5049694;28;20123;-56
2023/03/30 00:23:31;;;;;;;5.70;4.75;;;;;;;;;;5048959;28;20037;-57
2023/03/30 00:25:57;;;;;;;5.47;4.97;;;;;;;;;;5051607;28;20045;-57
2023/03/30 00:28:24;;;;;;;4.53;4.10;;;;;;;;;;5052031;28;20052;-57
2023/03/30 00:30:52;;;;;;;4.32;4.03;;;;;;;;;;5053528;28;20786;-56
2023/03/30 00:33:18;;;;;;;5.55;4.20;;;;;;;;;;5055059;28;20052;-56
2023/03/30 00:35:51;;;;;;;5.85;4.22;;;;;;;;;;5051827;28;20045;-57
2023/03/30 00:38:17;;;;;;;4.45;4.07;;;;;;;;;;5045714;28;20049;-57
2023/03/30 00:40:50;;;;;;;4.18;3.88;;;;;;;;;;5050972;28;20150;-57
2023/03/30 00:43:16;;;;;;;5.50;4.38;;;;;;;;;;5056427;28;20039;-57
2023/03/30 00:45:42;;;;;;;4.88;4.43;;;;;;;;;;5053928;28;20124;-58
2023/03/30 00:48:16;;;;;;;4.32;4.03;;;;;;;;;;5052010;28;20132;-57
2023/03/30 00:50:45;;;;;;;5.55;4.25;;;;;;;;;;5051788;28;20041;-58
2023/03/30 00:53:21;;;;;;;6.15;4.85;;;;;;;;;;5053224;28;20047;-62
2023/03/30 00:55:48;;;;;;;4.40;4.00;;;;;;;;;;5054952;28;20037;-58
2023/03/30 00:58:15;;;;;;;4.57;4.15;;;;;;;;;;5060581;28;20044;-58
2023/03/30 01:00:42;;;;;;;4.47;4.07;;;;;;;;;;5056509;28;20052;-59
2023/03/30 01:03:15;;;;;;;4.03;3.65;;;;;;;;;;5057840;28;20083;-61
2023/03/30 01:05:41;;;;;;;5.63;4.82;;;;;;;;;;5058670;28;20045;-62
2023/03/30 01:08:15;;;;;;;4.63;3.90;;;;;;;;;;5051597;28;20496;-59
2023/03/30 01:10:41;;;;;;;4.30;3.90;;;;;;;;;;5058324;28;20057;-59
2023/03/30 01:13:07;;;;;;;4.68;3.72;;;;;;;;;;5053762;28;20040;-59
2023/03/30 01:15:35;;;;;;;3.65;3.35;;;;;;;;;;5054679;28;20124;-60
2023/03/30 01:18:09;;;;;;;4.45;3.50;;;;;;;;;;5055392;28;20517;-59
2023/03/30 01:20:39;;;;;;;4.38;3.92;;;;;;;;;;5056996;28;20052;-59
2023/03/30 01:23:09;;;;;;;3.83;3.53;;;;;;;;;;5058721;28;20045;-58
2023/03/30 01:25:55;;;;;;;4.30;3.90;;;;;;;;;;5052144;28;20802;-59
2023/03/30 01:28:21;;;;;;;5.35;3.08;;;;;;;;;;5053718;28;20090;-59
2023/03/30 01:31:05;;;;;;;5.07;4.03;;;;;;;;;;5053175;28;20039;-61
2023/03/30 01:33:43;;;;;;;5.07;4.13;;;;;;;;;;5055605;28;20182;-60
2023/03/30 01:36:33;;;;;;;4.88;3.70;;;;;;;;;;5052754;28;20055;-60
2023/03/30 01:39:17;;;;;;;5.20;3.40;;;;;;;;;;5052851;28;20091;-60
2023/03/30 01:41:48;;;;;;;3.80;3.22;;;;;;;;;;5055133;28;20072;-62
2023/03/30 01:44:24;;;;;;;3.63;3.30;;;;;;;;;;5056645;28;20090;-61
2023/03/30 01:46:57;;;;;;;6.78;3.90;;;;;;;;;;5052722;28;20064;-57
2023/03/30 01:49:41;;;;;;;3.85;3.42;;;;;;;;;;5055324;28;20135;-56
2023/03/30 01:52:15;;;;;;;5.68;3.30;;;;;;;;;;5057686;28;20128;-57
2023/03/30 01:54:49;;;;;;;4.50;3.95;;;;;;;;;;5053147;28;20044;-57
2023/03/30 01:57:18;;;;;;;3.50;2.80;;;;;;;;;;5054799;28;20076;-56
2023/03/30 01:59:51;;;;;;;5.18;3.65;;;;;;;;;;5057098;28;20036;-57
2023/03/30 02:02:18;;;;;;;6.47;3.88;;;;;;;;;;5055836;28;20133;-57
2023/03/30 02:04:44;;;;;;;5.45;3.55;;;;;;;;;;5054900;28;20040;-59
2023/03/30 02:07:14;;;;;;;4.40;3.25;;;;;;;;;;5052851;28;20053;-57
2023/03/30 02:09:41;;;;;;;3.67;3.38;;;;;;;;;;5049623;28;20060;-59
2023/03/30 02:12:08;;;;;;;6.03;3.60;;;;;;;;;;5059574;28;20037;-58
2023/03/30 02:14:36;;;;;;;4.93;3.72;;;;;;;;;;5051341;28;20124;-59
2023/03/30 02:17:16;;;;;;;4.95;4.38;;;;;;;;;;5051873;28;20106;-59
2023/03/30 02:19:45;;;;;;;4.43;3.28;;;;;;;;;;5054085;28;20060;-57
2023/03/30 02:22:11;;;;;;;6.30;3.72;;;;;;;;;;5058555;28;20724;-57
2023/03/30 02:24:37;;;;;;;7.10;3.72;;;;;;;;;;5052926;28;20050;-57
2023/03/30 02:27:04;;;;;;;5.32;3.63;;;;;;;;;;5049928;28;20480;-57
2023/03/30 02:29:30;;;;;;;10.40;4.03;;;;;;;;;;5177546;22;20086;-63
2023/03/30 02:31:58;;;;;;;7.07;3.25;;;;;;;;;;5041132;28;20362;-64
2023/03/30 02:34:24;;;;;;;3.70;3.28;;;;;;;;;;5039391;28;20384;-64
2023/03/30 02:36:59;;;;;;;3.33;2.80;;;;;;;;;;5042454;28;20056;-64
2023/03/30 02:39:50;;;;;;;6.22;3.25;;;;;;;;;;5040678;28;20068;-65
2023/03/30 02:42:28;;;;;;;3.95;2.72;;;;;;;;;;5043971;28;20048;-64
2023/03/30 02:45:12;;;;;;;4.25;2.80;;;;;;;;;;5044390;28;20045;-64
2023/03/30 02:47:56;;;;;;;5.53;3.47;;;;;;;;;;5043866;28;20037;-64
2023/03/30 02:50:22;;;;;;;5.40;3.88;;;;;;;;;;5040404;28;20071;-64
2023/03/30 02:52:58;;;;;;;4.05;2.83;;;;;;;;;;5042869;28;20504;-64
2023/03/30 02:55:27;;;;;;;4.97;3.28;;;;;;;;;;5038924;28;20095;-64
2023/03/30 02:58:01;;;;;;;4.55;3.22;;;;;;;;;;5042154;28;20506;-64
2023/03/30 03:00:31;;;;;;;4.95;3.30;;;;;;;;;;5043802;28;20102;-65
2023/03/30 03:02:59;;;;;;;6.78;3.38;;;;;;;;;;5042993;28;20076;-65
2023/03/30 03:05:26;;;;;;;4.95;3.25;;;;;;;;;;5038902;28;20040;-65
2023/03/30 03:07:52;;;;;;;5.78;3.40;;;;;;;;;;5043683;28;20116;-65
2023/03/30 03:10:18;;;;;;;4.90;2.80;;;;;;;;;;5044412;28;20655;-64
2023/03/30 03:12:45;;;;;;;4.68;2.97;;;;;;;;;;5043232;28;20487;-64
2023/03/30 03:15:12;;;;;;;3.92;2.78;;;;;;;;;;5039011;28;20044;-65
2023/03/30 03:17:38;;;;;;;7.13;2.90;;;;;;;;;;5044492;28;20048;-65
2023/03/30 03:20:06;;;;;;;7.63;3.33;;;;;;;;;;5043837;28;20102;-64
2023/03/30 03:22:32;;;;;;;5.82;3.25;;;;;;;;;;5041726;28;20371;-64
2023/03/30 03:24:58;;;;;;;5.20;2.97;;;;;;;;;;5043534;28;20048;-64
2023/03/30 03:27:24;;;;;;;5.40;2.92;;;;;;;;;;5043261;28;20410;-65
2023/03/30 03:29:50;;;;;;;5.85;3.00;;;;;;;;;;5041884;28;20530;-64
2023/03/30 03:32:16;;;;;;;6.22;3.65;;;;;;;;;;5043974;28;20132;-64
2023/03/30 03:34:46;;;;;;;6.78;2.40;;;;;;;;;;5042655;28;20045;-64
2023/03/30 03:37:12;;;;;;;5.70;3.05;;;;;;;;;;5041822;28;20029;-64
2023/03/30 03:39:38;;;;;;;4.20;2.60;;;;;;;;;;5043616;28;20037;-64
2023/03/30 03:42:05;;;;;;;6.32;2.60;;;;;;;;;;5041512;28;20503;-65
2023/03/30 03:44:31;;;;;;;6.35;2.88;;;;;;;;;;5042834;28;20391;-64
2023/03/30 03:46:57;;;;;;;4.32;2.50;;;;;;;;;;5043097;28;20087;-64
2023/03/30 03:49:23;;;;;;;4.45;2.17;;;;;;;;;;5043899;28;20479;-64
2023/03/30 03:51:49;;;;;;;5.78;2.40;;;;;;;;;;5042114;28;20314;-64
2023/03/30 03:54:15;;;;;;;7.30;3.00;;;;;;;;;;5041798;28;20495;-65
2023/03/30 03:56:42;;;;;;;4.28;2.40;;;;;;;;;;5043868;28;20053;-65
2023/03/30 03:59:08;;;;;;;5.32;2.30;;;;;;;;;;5042468;28;20040;-64
2023/03/30 04:01:34;;;;;;;11.02;2.90;;;;;;;;;;5043315;28;20174;-64
2023/03/30 04:04:00;;;;;;;5.45;3.00;;;;;;;;;;5043193;28;20088;-64
2023/03/30 04:06:26;;;;;;;7.50;3.35;;;;;;;;;;5042493;28;20049;-64
2023/03/30 04:08:52;;;;;;;9.50;2.90;;;;;;;;;;5042260;28;20053;-64
2023/03/30 04:11:18;;;;;;;6.60;2.70;;;;;;;;;;5041567;28;20044;-65
2023/03/30 04:13:44;;;;;;;6.40;2.63;;;;;;;;;;5041581;28;20059;-65
2023/03/30 04:16:10;;;;;;;2.25;1.75;;;;;;;;;;5041479;28;20550;-64
2023/03/30 04:18:37;;;;;;;5.45;2.40;;;;;;;;;;5043873;28;20064;-64
2023/03/30 04:21:05;;;;;;;9.63;3.10;;;;;;;;;;5042253;28;20565;-65
2023/03/30 04:23:32;;;;;;;5.80;2.50;;;;;;;;;;5042414;28;20059;-65
2023/03/30 04:26:03;;;;;;;3.00;1.90;;;;;;;;;;5042078;28;20132;-65
2023/03/30 04:28:30;;;;;;;4.38;2.08;;;;;;;;;;5042927;28;20056;-64
2023/03/30 04:30:57;;;;;;;7.75;2.38;;;;;;;;;;5045964;28;20069;-64
2023/03/30 04:33:24;;;;;;;7.38;2.60;;;;;;;;;;5045896;28;20052;-65
2023/03/30 04:35:50;;;;;;;3.55;2.03;;;;;;;;;;5044837;28;20132;-65
2023/03/30 04:38:21;;;;;;;5.60;2.10;;;;;;;;;;5047375;28;20124;-64
2023/03/30 04:40:47;;;;;;;2.22;1.38;;;;;;;;;;5045255;28;20514;-64
2023/03/30 04:43:13;;;;;;;8.68;2.00;;;;;;;;;;5046205;28;20498;-64
2023/03/30 04:45:39;;;;;;;6.13;1.80;;;;;;;;;;5044978;28;20052;-64
2023/03/30 04:48:06;;;;;;;5.40;1.95;;;;;;;;;;5046238;28;20033;-64
2023/03/30 04:50:32;;;;;;;5.80;2.38;;;;;;;;;;5045024;28;20179;-64
2023/03/30 04:52:58;;;;;;;3.83;1.38;;;;;;;;;;5045201;28;20045;-64
2023/03/30 04:55:24;;;;;;;5.72;2.05;;;;;;;;;;5047648;28;20191;-65
2023/03/30 04:57:50;;;;;;;1.80;1.33;;;;;;;;;;5044602;28;20045;-64
2023/03/30 05:00:16;;;;;;;8.60;2.55;;;;;;;;;;5046707;28;20048;-64
2023/03/30 05:02:42;;;;;;;5.20;2.22;;;;;;;;;;5045878;28;20117;-64
2023/03/30 05:05:08;;;;;;;2.67;1.70;;;;;;;;;;5046136;28;20037;-64
2023/03/30 05:07:34;;;;;;;5.63;1.90;;;;;;;;;;5042765;28;20384;-64
2023/03/30 05:10:00;;;;;;;9.60;2.15;;;;;;;;;;5046008;28;20041;-64
2023/03/30 05:12:26;;;;;;;4.60;3.05;;;;;;;;;;5046534;28;20052;-64
2023/03/30 05:14:52;;;;;;;7.22;2.17;;;;;;;;;;5044475;28;20073;-64
2023/03/30 05:17:19;;;;;;;2.85;1.95;;;;;;;;;;5046016;28;20056;-64
2023/03/30 05:19:45;;;;;;;7.18;2.10;;;;;;;;;;5044957;28;20045;-64
2023/03/30 05:22:11;;;;;;;5.13;1.77;;;;;;;;;;5041170;28;20091;-64
2023/03/30 05:24:37;;;;;;;5.15;2.35;;;;;;;;;;5044698;28;20049;-64
2023/03/30 05:27:04;;;;;;;6.60;1.83;;;;;;;;;;5046039;28;20094;-64
2023/03/30 05:29:30;;;;;;;10.60;2.33;;;;;;;;;;5044889;28;20578;-64
2023/03/30 05:31:56;;;;;;;7.53;2.42;;;;;;;;;;5043795;28;20129;-65
2023/03/30 05:34:22;;;;;;;8.18;2.50;;;;;;;;;;5046468;28;20124;-65
2023/03/30 05:36:48;;;;;;;7.88;2.83;;;;;;;;;;5044442;28;20060;-64
2023/03/30 05:39:14;;;;;;;8.50;2.63;;;;;;;;;;5044083;28;20090;-64
2023/03/30 05:41:41;;;;;;;6.88;2.20;;;;;;;;;;5043334;28;20410;-64
2023/03/30 05:44:07;;;;;;;10.18;3.05;;;;;;;;;;5044387;28;20045;-64
2023/03/30 05:46:33;;;;;;;4.63;2.15;;;;;;;;;;5044986;28;20044;-64
2023/03/30 05:48:59;;;;;;;10.48;2.65;;;;;;;;;;5043719;28;20049;-64
2023/03/30 05:51:25;;;;;;;9.30;2.40;;;;;;;;;;5044916;28;20045;-65
2023/03/30 05:53:51;;;;;;;4.95;2.50;;;;;;;;;;5044758;28;20150;-64
2023/03/30 05:56:17;;;;;;;5.18;2.30;;;;;;;;;;5044892;28;20053;-64
2023/03/30 05:58:43;;;;;;;5.78;1.75;;;;;;;;;;5043385;28;20542;-64
2023/03/30 06:01:10;;;;;;;7.00;1.67;;;;;;;;;;5044767;28;20049;-64
2023/03/30 06:03:37;;;;;;;4.85;2.22;;;;;;;;;;5046024;28;20496;-66
2023/03/30 06:06:04;;;;;;;4.35;2.25;;;;;;;;;;5043974;28;20128;-67
2023/03/30 06:08:30;;;;;;;6.30;2.17;;;;;;;;;;5044543;28;20198;-67
2023/03/30 06:10:56;;;;;;;5.03;2.85;;;;;;;;;;5043787;28;20808;-66
2023/03/30 06:13:22;;;;;;;9.75;2.53;;;;;;;;;;5045635;28;20037;-67
2023/03/30 06:15:48;;;;;;;5.63;3.08;;;;;;;;;;5044830;28;20041;-67
2023/03/30 06:18:14;;;;;;;7.70;2.55;;;;;;;;;;5045062;28;20047;-66
2023/03/30 06:20:40;;;;;;;7.22;2.00;;;;;;;;;;5044722;28;20048;-66
2023/03/30 06:23:06;;;;;;;5.40;2.60;;;;;;;;;;5043538;28;20063;-65
2023/03/30 06:25:32;;;;;;;3.42;2.15;;;;;;;;;;5043392;28;20472;-65
2023/03/30 06:27:59;;;;;;;6.00;2.58;;;;;;;;;;5041569;28;20502;-65
2023/03/30 06:30:25;;;;;;;6.72;2.85;;;;;;;;;;5043709;28;20065;-65
2023/03/30 06:32:51;;;;;;;6.18;2.47;;;;;;;;;;5044843;28;20098;-65
2023/03/30 06:35:17;;;;;;;4.75;2.40;;;;;;;;;;5041253;28;20166;-65
2023/03/30 06:37:43;;;;;;;5.60;2.88;;;;;;;;;;5044939;28;20112;-66
2023/03/30 06:40:12;;;;;;;4.88;2.28;;;;;;;;;;5044949;28;20041;-66
2023/03/30 06:42:45;;;;;;;5.28;2.75;;;;;;;;;;5040399;28;20041;-66
2023/03/30 06:45:12;;;;;;;8.05;2.90;;;;;;;;;;5044671;28;20406;-66
2023/03/30 06:47:38;;;;;;;9.60;3.08;;;;;;;;;;5043940;28;20505;-66
2023/03/30 06:50:04;;;;;;;8.77;2.95;;;;;;;;;;5043324;28;20053;-66
2023/03/30 06:52:33;;;;;;;4.97;2.15;;;;;;;;;;5043129;28;20053;-66
2023/03/30 06:54:59;;;;;;;5.85;2.42;;;;;;;;;;5042229;28;20198;-66
2023/03/30 06:57:25;;;;;;;6.43;2.42;;;;;;;;;;5042852;28;20041;-66
2023/03/30 06:59:51;;;;;;;8.50;2.67;;;;;;;;;;5042075;28;20056;-66
2023/03/30 07:02:17;;;;;;;7.90;2.63;;;;;;;;;;5034896;28;20423;-66
2023/03/30 07:04:45;;;;;;;7.30;2.72;;;;;;;;;;5041711;28;20044;-66
2023/03/30 07:07:11;;;;;;;10.82;3.30;;;;;;;;;;5043566;28;20044;-67
2023/03/30 07:09:37;;;;;;;9.68;3.22;;;;;;;;;;5043618;28;20060;-65
2023/03/30 07:12:03;;;;;;;13.02;3.30;;;;;;;;;;5042569;28;20410;-65
2023/03/30 07:14:30;;;;;;;8.02;2.60;;;;;;;;;;5042781;28;20499;-66
2023/03/30 07:16:56;;;;;;;10.63;3.00;;;;;;;;;;5038556;28;20037;-65
2023/03/30 07:19:22;;;;;;;17.67;3.47;;;;;;;;;;5040015;28;20114;-64
2023/03/30 07:21:48;;;;;;;9.52;2.95;;;;;;;;;;5042856;28;20041;-65
2023/03/30 07:24:15;;;;;;;12.95;3.15;;;;;;;;;;5040982;28;20045;-65
2023/03/30 07:26:41;;;;;;;10.23;2.60;;;;;;;;;;5034396;28;20111;-65
2023/03/30 07:29:07;;;;;;;9.48;2.85;;;;;;;;;;5041084;28;20040;-66
2023/03/30 07:31:33;;;;;;;12.20;2.70;;;;;;;;;;5042578;28;20049;-66
2023/03/30 07:34:01;;;;;;;15.57;3.35;;;;;;;;;;5042551;28;20220;-65
2023/03/30 07:36:27;;;;;;;10.88;3.05;;;;;;;;;;5042206;28;20159;-65
2023/03/30 07:38:53;;;;;;;10.68;3.03;;;;;;;;;;5041203;28;20491;-65
2023/03/30 07:41:20;;;;;;;13.30;3.10;;;;;;;;;;5041019;28;20753;-65
2023/03/30 07:43:46;;;;;;;16.20;4.32;;;;;;;;;;5042473;28;20041;-65
2023/03/30 07:46:12;;;;;;;16.85;3.53;;;;;;;;;;5038507;28;20056;-65
2023/03/30 07:48:38;;;;;;;15.40;4.35;;;;;;;;;;5042142;28;20044;-65
2023/03/30 07:51:06;;;;;;;11.73;3.25;;;;;;;;;;5039269;28;20080;-65
2023/03/30 07:53:32;;;;;;;12.13;3.38;;;;;;;;;;5033755;28;20511;-65
2023/03/30 07:55:58;;;;;;;8.20;3.42;;;;;;;;;;5035150;28;20048;-65
2023/03/30 07:58:25;;;;;;;17.58;3.88;;;;;;;;;;5032604;28;20052;-66
2023/03/30 08:00:52;;;;;;;15.98;3.28;;;;;;;;;;5028461;28;20198;-66
2023/03/30 08:03:20;;;;;;;12.52;3.30;;;;;;;;;;5031654;28;20438;-66
2023/03/30 08:05:58;;;;;;;16.77;3.85;;;;;;;;;;5043503;28;20052;-66
2023/03/30 08:08:24;;;;;;;10.60;3.63;;;;;;;;;;5040381;28;20668;-66
2023/03/30 08:10:51;;;;;;;14.07;4.03;;;;;;;;;;5043586;28;20187;-65
2023/03/30 08:13:17;;;;;;;13.93;4.28;;;;;;;;;;5045416;28;20069;-61
2023/03/30 08:15:43;;;;;;;16.45;4.95;;;;;;;;;;5045331;28;20045;-64
2023/03/30 08:18:11;;;;;;;21.38;4.45;;;;;;;;;;5047828;28;20041;-63
2023/03/30 08:20:37;;;;;;;17.33;3.78;;;;;;;;;;5048141;28;20052;-62
2023/03/30 08:23:05;;;;;;;12.45;3.70;;;;;;;;;;5036577;28;20103;-61
2023/03/30 08:25:31;;;;;;;11.48;3.70;;;;;;;;;;5037796;28;20049;-61
2023/03/30 08:27:57;;;;;;;14.27;3.47;;;;;;;;;;5044377;28;20045;-61
2023/03/30 08:30:23;;;;;;;18.35;4.22;;;;;;;;;;5034266;28;20140;-62
2023/03/30 08:32:50;;;;;;;17.48;4.68;;;;;;;;;;5036592;28;20407;-61
2023/03/30 08:35:16;;;;;;;12.20;3.63;;;;;;;;;;5035332;28;20056;-61
2023/03/30 08:37:43;;;;;;;18.55;4.47;;;;;;;;;;5039609;28;20045;-61
2023/03/30 08:40:11;;;;;;;16.23;3.90;;;;;;;;;;5036206;28;20056;-61
2023/03/30 08:42:39;;;;;;;13.75;3.63;;;;;;;;;;5035471;28;20049;-61
2023/03/30 08:45:08;;;;;;;17.08;5.13;;;;;;;;;;5033318;28;20045;-61
2023/03/30 08:47:38;;;;;;;20.50;4.18;;;;;;;;;;5039882;28;20049;-62
2023/03/30 08:50:05;;;;;;;12.40;4.63;;;;;;;;;;5041893;28;20128;-62
2023/03/30 08:52:32;;;;;;;22.92;5.20;;;;;;;;;;5038727;28;20056;-62
2023/03/30 08:54:58;;;;;;;24.73;5.05;;;;;;;;;;5037877;28;20594;-62
2023/03/30 08:57:44;;;;;;;14.30;4.50;;;;;;;;;;5037858;28;20053;-61
2023/03/30 09:00:31;;;;;;;18.65;4.63;;;;;;;;;;5039086;28;20053;-60
2023/03/30 09:03:08;;;;;;;18.48;4.55;;;;;;;;;;5043468;28;20041;-61
2023/03/30 09:05:36;;;;;;;15.55;4.25;;;;;;;;;;5043972;28;20140;-60
2023/03/30 09:08:21;;;;;;;14.90;4.00;;;;;;;;;;5036880;28;20403;-60
2023/03/30 09:10:51;;;;;;;22.90;4.57;;;;;;;;;;5044278;28;20499;-60
2023/03/30 09:13:18;;;;;;;20.70;5.38;;;;;;;;;;5045746;28;20652;-59
2023/03/30 09:16:09;;;;;;;27.98;5.75;;;;;;;;;;5034065;28;20547;-60
2023/03/30 09:18:37;;;;;;;21.80;5.45;;;;;;;;;;5024270;28;20057;-60
2023/03/30 09:21:04;;;;;;;19.20;4.32;;;;;;;;;;5025668;28;20456;-58
2023/03/30 09:23:31;;;;;;;25.83;4.88;;;;;;;;;;5025295;28;20085;-58
2023/03/30 09:25:57;;;;;;;20.77;4.82;;;;;;;;;;5025839;28;20053;-58
2023/03/30 09:28:29;;;;;;;12.55;4.03;;;;;;;;;;5024783;28;20653;-58
2023/03/30 09:31:07;;;;;;;16.80;4.32;;;;;;;;;;5024636;28;20054;-58
2023/03/30 09:33:33;;;;;;;16.38;4.95;;;;;;;;;;5025652;28;20124;-58
2023/03/30 09:36:01;;;;;;;14.40;4.10;;;;;;;;;;5025545;28;20072;-58
2023/03/30 09:38:29;;;;;;;19.98;4.60;;;;;;;;;;5025173;28;20041;-60
2023/03/30 09:41:16;;;;;;;22.58;4.47;;;;;;;;;;5025921;28;20041;-61
2023/03/30 09:43:44;;;;;;;18.23;4.18;;;;;;;;;;5026414;28;20042;-58
2023/03/30 09:46:11;;;;;;;13.38;3.75;;;;;;;;;;5026174;28;20045;-60
2023/03/30 09:48:38;;;;;;;14.80;4.35;;;;;;;;;;5027082;28;20041;-60
2023/03/30 09:51:13;;;;;;;14.18;3.92;;;;;;;;;;5027166;28;20049;-61
2023/03/30 09:53:39;;;;;;;16.92;3.55;;;;;;;;;;5025504;28;20041;-60
2023/03/30 09:56:10;;;;;;;12.95;3.53;;;;;;;;;;5026877;28;20046;-61
2023/03/30 09:58:36;;;;;;;17.83;3.25;;;;;;;;;;5026225;28;20819;-60
2023/03/30 10:01:04;;;;;;;15.32;3.78;;;;;;;;;;5026230;28;20061;-60
2023/03/30 10:03:31;;;;;;;14.80;3.33;;;;;;;;;;5026803;28;20088;-60
2023/03/30 10:06:07;;;;;;;12.75;3.90;;;;;;;;;;5025693;28;20053;-60
2023/03/30 10:08:37;;;;;;;20.35;4.05;;;;;;;;;;5037084;28;20048;-61
2023/03/30 10:11:05;;;;;;;14.75;4.22;;;;;;;;;;5045761;28;20051;-61
2023/03/30 10:13:33;;;;;;;12.43;3.58;;;;;;;;;;5044554;28;20076;-61
2023/03/30 10:16:02;;;;;;;13.15;3.10;;;;;;;;;;5042285;28;20045;-61
2023/03/30 10:18:31;;;;;;;14.40;3.67;;;;;;;;;;5046591;28;20048;-61
2023/03/30 10:21:02;;;;;;;12.55;3.30;;;;;;;;;;5041385;28;20106;-58
2023/03/30 10:23:32;;;;;;;15.60;3.83;;;;;;;;;;5040023;28;20053;-61
2023/03/30 10:26:02;;;;;;;13.02;3.13;;;;;;;;;;5040073;28;20511;-60
2023/03/30 10:28:32;;;;;;;16.05;3.25;;;;;;;;;;5041743;28;20076;-61
2023/03/30 10:30:59;;;;;;;13.43;3.92;;;;;;;;;;5040964;28;20501;-62
2023/03/30 10:33:28;;;;;;;12.40;3.30;;;;;;;;;;5044088;28;20126;-61
2023/03/30 10:35:59;;;;;;;16.30;4.13;;;;;;;;;;5043913;28;20084;-61
2023/03/30 10:38:29;;;;;;;15.70;3.80;;;;;;;;;;5044323;28;20060;-61
2023/03/30 10:41:01;;;;;;;21.73;4.43;;;;;;;;;;5044869;28;20495;-61
2023/03/30 10:43:27;;;;;;;;;;;;;;;;;;5046486;28;20396;-61
2023/03/30 10:45:55;;;;;;;18.27;4.18;;;;;;;;;;5040876;28;19920;-61
2023/03/30 10:48:39;;;;;;;15.32;3.80;;;;;;;;;;5035734;28;20045;-60
2023/03/30 10:51:24;;;;;;;21.73;4.85;;;;;;;;;;5034400;28;20049;-61
2023/03/30 10:53:58;;;;;;;18.50;4.85;;;;;;;;;;5035245;28;20627;-61
2023/03/30 10:56:27;;;;;;;20.05;4.60;;;;;;;;;;5035829;28;20048;-61
2023/03/30 10:59:12;;;;;;;13.70;4.60;;;;;;;;;;5031005;28;20033;-59
2023/03/30 11:02:07;;;;;;;15.98;4.20;;;;;;;;;;5043087;28;20198;-58
2023/03/30 11:04:44;;;;;;;19.15;4.63;;;;;;;;;;4988965;28;20479;-61
2023/03/30 11:07:23;;;;;;;17.05;4.30;;;;;;;;;;5043948;28;20051;-61
2023/03/30 11:09:53;;;;;;;18.20;4.43;;;;;;;;;;5043430;28;20055;-62
2023/03/30 11:12:21;;;;;;;15.82;4.45;;;;;;;;;;5043919;28;20061;-60
2023/03/30 11:14:56;;;;;;;16.23;4.45;;;;;;;;;;5042144;28;20049;-60
2023/03/30 11:17:33;;;;;;;28.77;4.97;;;;;;;;;;5042204;28;20047;-60
2023/03/30 11:20:05;;;;;;;22.45;4.63;;;;;;;;;;5041676;28;20056;-60
2023/03/30 11:22:46;;;;;;;17.42;4.70;;;;;;;;;;5040097;28;20128;-61
2023/03/30 11:25:21;;;;;;;20.80;5.25;;;;;;;;;;5036004;28;20063;-60
2023/03/30 11:28:07;;;;;;;20.13;4.60;;;;;;;;;;5042640;28;20059;-60
2023/03/30 11:30:35;;;;;;;17.17;5.00;;;;;;;;;;5034416;28;20387;-60
2023/03/30 11:33:12;;;;;;;17.60;4.70;;;;;;;;;;5032695;28;20050;-61
2023/03/30 11:35:41;;;;;;;15.23;4.13;;;;;;;;;;5034514;28;20044;-60
2023/03/30 11:38:16;;;;;;;13.82;4.07;;;;;;;;;;5028845;28;20049;-60
2023/03/30 11:40:46;;;;;;;12.85;3.75;;;;;;;;;;5036625;28;20072;-60
2023/03/30 11:43:13;;;;;;;17.85;4.63;;;;;;;;;;5031808;28;20063;-60
2023/03/30 11:45:39;;;;;;;10.23;3.63;;;;;;;;;;5034768;28;20080;-60
2023/03/30 11:48:24;;;;;;;14.50;3.58;;;;;;;;;;5040954;28;20041;-60
2023/03/30 11:50:59;;;;;;;17.15;4.60;;;;;;;;;;5042504;28;20057;-60
2023/03/30 11:53:32;;;;;;;16.83;3.22;;;;;;;;;;5037952;28;20148;-60
2023/03/30 11:56:11;;;;;;;14.95;3.80;;;;;;;;;;5032868;28;20438;-60
2023/03/30 11:58:38;;;;;;;20.73;4.70;;;;;;;;;;5043930;28;20049;-60
2023/03/30 12:01:04;;;;;;;16.40;4.18;;;;;;;;;;5024520;28;20091;-60
2023/03/30 12:03:46;;;;;;;14.95;4.15;;;;;;;;;;5040228;28;20442;-61
2023/03/30 12:06:15;;;;;;;15.82;3.72;;;;;;;;;;5041023;28;20043;-60
2023/03/30 12:09:00;;;;;;;20.60;4.88;;;;;;;;;;5034638;28;20558;-60
2023/03/30 12:11:35;;;;;;;15.82;4.20;;;;;;;;;;5031259;28;20077;-60
2023/03/30 12:14:01;;;;;;;21.00;4.82;;;;;;;;;;5032095;28;20357;-60
2023/03/30 12:16:30;;;;;;;16.10;4.20;;;;;;;;;;5033172;28;20061;-60
2023/03/30 12:19:05;;;;;;;14.05;4.32;;;;;;;;;;5025742;28;20045;-59
2023/03/30 12:21:32;;;;;;;18.25;4.82;;;;;;;;;;5024605;28;20089;-60
2023/03/30 12:24:01;;;;;;;12.05;3.53;;;;;;;;;;5024383;28;20037;-59
2023/03/30 12:26:28;;;;;;;13.00;3.65;;;;;;;;;;5026511;28;20395;-60
2023/03/30 12:28:55;;;;;;;19.65;4.80;;;;;;;;;;5031180;28;20052;-59
2023/03/30 12:31:22;;;;;;;15.63;4.32;;;;;;;;;;5041847;28;20411;-60
2023/03/30 12:33:49;;;;;;;19.13;4.93;;;;;;;;;;5035289;28;20510;-59
2023/03/30 12:36:25;;;;;;;19.35;4.25;;;;;;;;;;5031048;28;20491;-60
2023/03/30 12:38:52;;;;;;;14.88;4.43;;;;;;;;;;5043018;28;20056;-60
2023/03/30 12:41:19;;;;;;;22.48;5.43;;;;;;;;;;5033462;28;20052;-59
2023/03/30 12:43:54;;;;;;;15.52;4.75;;;;;;;;;;5038953;28;20049;-60
2023/03/30 12:46:40;;;;;;;16.15;4.45;;;;;;;;;;5028594;28;20051;-59
2023/03/30 12:49:29;;;;;;;12.15;3.45;;;;;;;;;;5035882;28;20055;-60
2023/03/30 12:52:02;;;;;;;23.13;4.72;;;;;;;;;;4999787;28;20068;-60
2023/03/30 12:54:40;;;;;;;13.57;3.97;;;;;;;;;;5033321;28;20082;-60
2023/03/30 12:57:23;;;;;;;17.58;3.88;;;;;;;;;;5032563;28;20546;-60
2023/03/30 12:59:55;;;;;;;19.95;4.70;;;;;;;;;;5043300;28;20123;-59
2023/03/30 13:02:40;;;;;;;20.58;4.30;;;;;;;;;;5032679;28;20047;-60
2023/03/30 13:05:32;;;;;;;20.80;4.93;;;;;;;;;;5039564;28;20172;-60
2023/03/30 13:08:03;;;;;;;23.15;5.22;;;;;;;;;;5037396;28;20404;-60
2023/03/30 13:10:28;;;;;;;14.93;3.97;;;;;;;;;;5036270;28;20063;-59
2023/03/30 13:12:58;;;;;;;13.25;4.05;;;;;;;;;;5034322;28;20370;-59
2023/03/30 13:15:27;;;;;;;19.98;4.82;;;;;;;;;;5035914;28;20124;-60
2023/03/30 13:17:58;;;;;;;25.38;5.13;;;;;;;;;;5045314;28;20033;-60
2023/03/30 13:20:28;;;;;;;15.30;3.75;;;;;;;;;;5038850;28;20565;-60
2023/03/30 13:23:13;;;;;;;17.90;4.65;;;;;;;;;;5043375;28;20037;-59
2023/03/30 13:25:43;;;;;;;19.55;5.65;;;;;;;;;;5042139;28;20321;-60
2023/03/30 13:28:28;;;;;;;24.88;6.70;;;;;;;;;;5033393;28;20084;-59
2023/03/30 13:30:56;;;;;;;19.92;5.75;;;;;;;;;;5043223;28;20061;-60
2023/03/30 13:33:23;;;;;;;21.58;5.70;;;;;;;;;;5044805;28;20045;-62
2023/03/30 13:36:02;;;;;;;15.45;4.53;;;;;;;;;;5024966;28;20053;-60
2023/03/30 13:38:28;;;;;;;21.35;5.18;;;;;;;;;;5026190;28;20060;-60
2023/03/30 13:41:00;;;;;;;20.13;4.25;;;;;;;;;;5026410;28;20045;-60
2023/03/30 13:43:51;;;;;;;18.95;4.72;;;;;;;;;;5039068;28;20048;-60
2023/03/30 13:46:30;;;;;;;17.38;4.20;;;;;;;;;;5045726;28;20080;-60
2023/03/30 13:49:15;;;;;;;22.33;4.75;;;;;;;;;;5045247;28;20055;-60
2023/03/30 13:51:41;;;;;;;19.23;5.15;;;;;;;;;;5046275;28;20053;-60
2023/03/30 13:54:16;;;;;;;22.92;5.13;;;;;;;;;;5046324;28;20056;-60
2023/03/30 13:56:46;;;;;;;17.20;4.05;;;;;;;;;;5046198;28;20110;-59
2023/03/30 13:59:13;;;;;;;21.00;5.53;;;;;;;;;;5038867;28;20193;-59
2023/03/30 14:01:40;;;;;;;17.95;4.93;;;;;;;;;;5039061;28;20048;-59
2023/03/30 14:04:09;;;;;;;16.75;4.70;;;;;;;;;;5034239;28;20495;-60
2023/03/30 14:06:42;;;;;;;16.85;4.05;;;;;;;;;;5024185;28;20045;-59
2023/03/30 14:09:14;;;;;;;23.10;4.72;;;;;;;;;;5023886;28;20119;-60
2023/03/30 14:11:44;;;;;;;17.30;4.50;;;;;;;;;;5023775;28;20519;-60
2023/03/30 14:14:26;;;;;;;24.52;6.13;;;;;;;;;;5024574;28;20054;-60
2023/03/30 14:16:53;;;;;;;17.20;4.78;;;;;;;;;;5025752;28;20045;-59
2023/03/30 14:19:22;;;;;;;18.45;5.50;;;;;;;;;;5023875;28;20049;-60
2023/03/30 14:21:48;;;;;;;22.65;5.78;;;;;;;;;;5025821;28;20532;-60
2023/03/30 14:24:17;;;;;;;17.77;5.60;;;;;;;;;;5025446;28;20104;-60
2023/03/30 14:26:43;;;;;;;27.20;5.93;;;;;;;;;;5023687;28;20114;-60
2023/03/30 14:29:19;;;;;;;22.15;5.15;;;;;;;;;;5023718;28;20578;-60
2023/03/30 14:31:46;;;;;;;16.17;5.28;;;;;;;;;;5025308;28;20407;-60
2023/03/30 14:34:28;;;;;;;22.75;5.38;;;;;;;;;;5024427;28;20503;-61
2023/03/30 14:36:54;;;;;;;;;;;;;;;;;;5037088;28;20453;-60
2023/03/30 14:39:22;;;;;;;20.17;5.07;;;;;;;;;;5037734;28;19928;-59
2023/03/30 14:41:49;;;;;;;19.00;4.95;;;;;;;;;;5039701;28;20053;-60
2023/03/30 14:44:16;;;;;;;17.33;5.78;;;;;;;;;;5023799;28;20506;-60
2023/03/30 14:46:42;;;;;;;23.77;5.43;;;;;;;;;;5023927;28;20045;-60
2023/03/30 14:49:18;;;;;;;18.83;4.57;;;;;;;;;;5024949;28;20057;-60
2023/03/30 14:51:46;;;;;;;22.98;4.95;;;;;;;;;;5023944;28;20289;-59